KAWM

West Memphis Municipal Airport

West Memphis, Arkansas, USA
METAR KAWM 240753Z AUTO 00000KT 7SM CLR 22/22 A3006 RMK AO2 SLP172 T02220222 $
Observed Flight Rules
May-24 @ 07:53 UTC (15 minutes ago) Visual Flight Rules
Visibility Clouds
7 miles
  • Clear skies
Temperatures Readings
Current 22°C / 72°F
Dewpoint 22°C / 72°F
Humidity 100%
Altimeter 30.06" Hg
Pressure 1017.2 hPa
Elevation 65
METAR KAWM 240753Z AUTO 00000KT 7SM CLR 22/22 A3006 RMK AO2 SLP172 T02220222 $
Observed Flight Rules
May-24 @ 07:53 UTC
(15 minutes ago)
VFR
Clouds
  • Clear skies
Temperature Dewpoint
22°C / 72°F 22°C / 72°F
Humidity Altimeter Pressure
100% 30.06" Hg 1017.2 hPa